Time;durP1;ratioP1;P1;durP2;ratioP2;P2;SDS_P1;SDS_P2;PMS_P1;PMS_P2;Temp;Humidity;BMP_temperature;BMP_pressure;BME280_temperature;BME280_humidity;BME280_pressure;Samples;Min_cycle;Max_cycle;Signal;HPM_P1;HPM_P2
2024/01/19 00:02:07;;;;;;;;;;;;;;;7.72;85.94;98785.62;5372372;32;34970;-68
2024/01/19 00:05:09;;;;;;;;;;;;;;;8.27;82.91;98789.66;5351982;32;34267;-70
2024/01/19 00:08:11;;;;;;;;;;;;;;;8.19;83.11;98797.09;5373137;32;35392;-70
2024/01/19 00:11:17;;;;;;;;;;;;;;;7.34;85.73;98798.06;5367273;32;34276;-69
2024/01/19 00:14:20;;;;;;;;;;;;;;;7.37;86.51;98804.94;5372561;32;35549;-69
2024/01/19 00:17:22;;;;;;;;;;;;;;;7.07;84.87;98816.81;5368067;32;34949;-69
2024/01/19 00:20:24;;;;;;;;;;;;;;;6.88;86.42;98830.88;5369099;32;35230;-69
2024/01/19 00:23:26;;;;;;;;;;;;;;;7.35;84.31;98846.81;5369265;32;34981;-70
2024/01/19 00:26:29;;;;;;;;;;;;;;;7.07;85.15;98848.19;5365660;32;36463;-69
2024/01/19 00:29:31;;;;;;;;;;;;;;;7.23;84.47;98847.44;5378633;32;35050;-70
2024/01/19 00:32:33;;;;;;;;;;;;;;;7.10;85.55;98864.66;5342967;32;34255;-69
2024/01/19 00:35:35;;;;;;;;;;;;;;;6.95;84.52;98874.06;5373569;32;34951;-70
2024/01/19 00:38:37;;;;;;;;;;;;;;;6.68;84.45;98865.78;5358019;32;35356;-69
2024/01/19 00:41:40;;;;;;;;;;;;;;;6.89;84.25;98876.97;5369142;32;34314;-69
2024/01/19 00:44:42;;;;;;;;;;;;;;;6.41;84.26;98894.84;5374536;32;35353;-69
2024/01/19 00:47:44;;;;;;;;;;;;;;;6.63;83.54;98888.63;5354476;32;35607;-69
2024/01/19 00:50:46;;;;;;;;;;;;;;;6.07;84.47;98892.09;5372463;32;35553;-70
2024/01/19 00:53:48;;;;;;;;;;;;;;;6.19;83.80;98918.47;5355068;32;34593;-69
2024/01/19 00:56:51;;;;;;;;;;;;;;;5.60;85.32;98941.87;5365110;32;35135;-71
2024/01/19 00:59:54;;;;;;;;;;;;;;;5.54;85.62;98955.16;5356769;32;34549;-70
2024/01/19 01:02:57;;;;;;;;;;;;;;;5.61;85.30;98946.19;5369678;32;34418;-69
2024/01/19 01:05:59;;;;;;;;;;;;;;;5.45;84.51;98961.59;5357908;32;34674;-70
2024/01/19 01:09:03;;;;;;;;;;;;;;;5.19;85.31;98986.09;5370652;32;34688;-69
2024/01/19 01:12:05;;;;;;;;;;;;;;;4.66;85.16;98996.81;5357676;32;35372;-70
2024/01/19 01:15:08;;;;;;;;;;;;;;;4.87;84.56;98988.19;5351922;32;34262;-69
2024/01/19 01:18:13;;;;;;;;;;;;;;;4.37;83.02;98984.00;5368550;32;35530;-70
2024/01/19 01:21:15;;;;;;;;;;;;;;;4.64;81.27;98990.81;5355901;32;35034;-71
2024/01/19 01:24:19;;;;;;;;;;;;;;;4.26;81.41;98994.81;5367031;32;35698;-69
2024/01/19 01:27:21;;;;;;;;;;;;;;;3.72;81.66;99008.78;5360672;32;35101;-70
2024/01/19 01:30:23;;;;;;;;;;;;;;;3.64;81.14;99016.84;5371247;32;35203;-70
2024/01/19 01:33:25;;;;;;;;;;;;;;;3.50;82.02;99035.47;5374487;32;35146;-71
2024/01/19 01:36:28;;;;;;;;;;;;;;;3.57;78.17;99043.91;5358838;32;35167;-70
2024/01/19 01:39:30;;;;;;;;;;;;;;;3.59;78.63;99059.44;5372451;32;35611;-70
2024/01/19 01:42:32;;;;;;;;;;;;;;;3.76;78.47;99063.22;5360766;32;34447;-69
2024/01/19 01:45:34;;;;;;;;;;;;;;;3.40;79.06;99061.78;5371202;32;34412;-69
2024/01/19 01:48:36;;;;;;;;;;;;;;;3.12;79.55;99067.81;5373123;32;34291;-69
2024/01/19 01:51:39;;;;;;;;;;;;;;;4.19;75.61;99058.34;5372203;32;35194;-69
2024/01/19 01:54:41;;;;;;;;;;;;;;;3.91;75.82;99069.66;5360776;32;34469;-68
2024/01/19 01:57:43;;;;;;;;;;;;;;;3.96;74.17;99072.97;5369010;32;35234;-69
2024/01/19 02:00:45;;;;;;;;;;;;;;;2.96;76.58;99075.22;5333022;32;839067;-69
2024/01/19 02:03:47;;;;;;;;;;;;;;;2.99;77.49;99087.25;5358442;32;35308;-68
2024/01/19 02:06:50;;;;;;;;;;;;;;;3.17;76.54;99112.66;5352064;32;34885;-69
2024/01/19 02:09:52;;;;;;;;;;;;;;;3.32;73.82;99118.31;5360846;32;34534;-70
2024/01/19 02:12:55;;;;;;;;;;;;;;;3.19;74.46;99116.06;5362835;32;34901;-70
2024/01/19 02:16:00;;;;;;;;;;;;;;;3.68;73.68;99121.53;5362047;32;34307;-70
2024/01/19 02:19:02;;;;;;;;;;;;;;;3.29;74.10;99134.00;5370750;32;36998;-70
2024/01/19 02:22:04;;;;;;;;;;;;;;;3.57;72.77;99140.03;5349678;32;34254;-70
2024/01/19 02:25:06;;;;;;;;;;;;;;;3.77;71.89;99135.06;5371260;32;34844;-70
2024/01/19 02:28:09;;;;;;;;;;;;;;;3.16;73.69;99149.91;5363320;32;35416;-69
2024/01/19 02:31:11;;;;;;;;;;;;;;;3.23;73.13;99154.03;5372399;32;34976;-69
2024/01/19 02:34:13;;;;;;;;;;;;;;;2.92;72.35;99166.19;5371615;32;34904;-69
2024/01/19 02:37:15;;;;;;;;;;;;;;;2.74;73.62;99177.91;5362078;32;34656;-70
2024/01/19 02:40:17;;;;;;;;;;;;;;;2.79;73.45;99164.81;5370646;32;34362;-69
2024/01/19 02:43:19;;;;;;;;;;;;;;;2.48;74.50;99175.97;5343155;32;34886;-69
2024/01/19 02:46:22;;;;;;;;;;;;;;;2.81;74.27;99170.81;5361654;32;34155;-69
2024/01/19 02:49:24;;;;;;;;;;;;;;;2.74;73.30;99170.13;5363920;32;34735;-68
2024/01/19 02:52:26;;;;;;;;;;;;;;;2.84;73.19;99183.72;5360366;32;35250;-70
2024/01/19 02:55:28;;;;;;;;;;;;;;;2.86;73.56;99185.34;5355036;32;35568;-69
2024/01/19 02:58:31;;;;;;;;;;;;;;;3.23;71.94;99187.78;5366834;32;34961;-69
2024/01/19 03:01:33;;;;;;;;;;;;;;;3.05;71.29;99209.06;5357042;32;35500;-70
2024/01/19 03:04:35;;;;;;;;;;;;;;;3.03;71.36;99220.38;5366647;32;35375;-70
2024/01/19 03:07:37;;;;;;;;;;;;;;;2.92;71.32;99231.06;5360337;32;34213;-71
2024/01/19 03:10:39;;;;;;;;;;;;;;;2.86;71.52;99231.22;5368710;32;34033;-69
2024/01/19 03:13:41;;;;;;;;;;;;;;;2.63;71.70;99224.88;5374308;32;34346;-69
2024/01/19 03:16:43;;;;;;;;;;;;;;;2.47;72.23;99233.09;5369864;32;35903;-69
2024/01/19 03:19:46;;;;;;;;;;;;;;;2.67;71.99;99239.47;5359050;32;35453;-68
2024/01/19 03:22:48;;;;;;;;;;;;;;;2.66;70.42;99248.16;5356186;32;35324;-69
2024/01/19 03:25:50;;;;;;;;;;;;;;;2.85;70.83;99253.72;5368149;32;35048;-69
2024/01/19 03:28:52;;;;;;;;;;;;;;;3.35;69.09;99255.84;5359697;32;34243;-69
2024/01/19 03:31:54;;;;;;;;;;;;;;;2.91;69.74;99252.72;5367048;32;34266;-68
2024/01/19 03:34:57;;;;;;;;;;;;;;;2.26;71.48;99268.16;5359318;32;35484;-68
2024/01/19 03:37:59;;;;;;;;;;;;;;;2.72;70.79;99260.97;5371953;32;34732;-69
2024/01/19 03:41:01;;;;;;;;;;;;;;;2.66;69.85;99268.06;5371900;32;35272;-69
2024/01/19 03:44:04;;;;;;;;;;;;;;;2.31;71.03;99277.53;5370033;32;34774;-69
2024/01/19 03:47:06;;;;;;;;;;;;;;;2.22;72.29;99267.38;5369213;32;35013;-69
2024/01/19 03:50:08;;;;;;;;;;;;;;;2.16;70.89;99270.09;5349619;32;34902;-69
2024/01/19 03:53:11;;;;;;;;;;;;;;;2.34;70.70;99276.63;5358493;32;35722;-70
2024/01/19 03:56:13;;;;;;;;;;;;;;;2.72;69.62;99293.84;5369906;32;37350;-70
2024/01/19 03:59:15;;;;;;;;;;;;;;;2.81;69.11;99283.22;5368503;32;34621;-69
2024/01/19 04:02:17;;;;;;;;;;;;;;;2.69;68.74;99293.91;5369473;32;34955;-69
2024/01/19 04:05:20;;;;;;;;;;;;;;;2.66;70.01;99294.84;5371356;32;35579;-70
2024/01/19 04:08:22;;;;;;;;;;;;;;;3.04;68.04;99295.62;5370214;32;34865;-69
2024/01/19 04:11:24;;;;;;;;;;;;;;;2.71;68.77;99297.34;5361330;32;35395;-72
2024/01/19 04:14:27;;;;;;;;;;;;;;;2.39;69.68;99293.78;5369361;32;34819;-69
2024/01/19 04:17:29;;;;;;;;;;;;;;;2.46;69.51;99296.22;5372712;32;35145;-69
2024/01/19 04:20:31;;;;;;;;;;;;;;;2.37;69.77;99303.31;5368848;32;34706;-69
2024/01/19 04:23:34;;;;;;;;;;;;;;;2.68;69.22;99308.63;5355286;32;34505;-68
2024/01/19 04:26:36;;;;;;;;;;;;;;;2.16;70.75;99303.81;5370800;32;34203;-70
2024/01/19 04:29:38;;;;;;;;;;;;;;;2.36;70.76;99293.81;5354980;32;34934;-71
2024/01/19 04:32:41;;;;;;;;;;;;;;;2.05;71.05;99296.25;5346915;32;34383;-71
2024/01/19 04:35:43;;;;;;;;;;;;;;;2.30;70.77;99303.50;5368385;32;34920;-71
2024/01/19 04:38:48;;;;;;;;;;;;;;;2.72;68.98;99315.47;5372719;32;33625;-71
2024/01/19 04:41:51;;;;;;;;;;;;;;;3.09;67.69;99319.75;5355020;32;34675;-69
2024/01/19 04:44:53;;;;;;;;;;;;;;;2.13;70.30;99327.22;5369393;32;35136;-69
2024/01/19 04:47:55;;;;;;;;;;;;;;;2.65;68.25;99334.66;5372190;32;34815;-69
2024/01/19 04:50:58;;;;;;;;;;;;;;;3.93;64.71;99329.56;5368627;32;35162;-69
2024/01/19 04:54:00;;;;;;;;;;;;;;;3.26;66.15;99350.44;5373077;32;34522;-70
2024/01/19 04:57:02;;;;;;;;;;;;;;;2.85;65.83;99359.28;5367692;32;34747;-69
2024/01/19 05:00:05;;;;;;;;;;;;;;;2.77;66.98;99364.66;5358342;32;34378;-69
2024/01/19 05:03:07;;;;;;;;;;;;;;;3.58;64.65;99359.13;5372093;32;34629;-70
2024/01/19 05:06:11;;;;;;;;;;;;;;;2.35;67.55;99369.06;5370216;32;35045;-69
2024/01/19 05:09:14;;;;;;;;;;;;;;;3.13;66.99;99365.50;5376895;32;35751;-70
2024/01/19 05:12:16;;;;;;;;;;;;;;;3.49;65.33;99370.63;5358186;32;35517;-70
2024/01/19 05:15:18;;;;;;;;;;;;;;;3.23;65.69;99368.72;5372775;32;35152;-69
2024/01/19 05:18:24;;;;;;;;;;;;;;;3.36;65.30;99377.91;5369282;32;35419;-69
2024/01/19 05:21:26;;;;;;;;;;;;;;;3.03;66.07;99377.00;5344175;32;35262;-70
2024/01/19 05:24:28;;;;;;;;;;;;;;;3.06;65.03;99389.91;5354456;32;35419;-69
2024/01/19 05:27:30;;;;;;;;;;;;;;;2.93;65.73;99381.56;5356102;32;34427;-70
2024/01/19 05:30:33;;;;;;;;;;;;;;;3.33;64.33;99408.28;5360395;32;35443;-69
2024/01/19 05:33:35;;;;;;;;;;;;;;;3.38;65.60;99414.22;5356307;32;35101;-70
2024/01/19 05:36:41;;;;;;;;;;;;;;;3.46;64.15;99420.06;5374974;32;34978;-70
2024/01/19 05:39:43;;;;;;;;;;;;;;;2.84;65.34;99422.47;5355261;32;35177;-69
2024/01/19 05:42:45;;;;;;;;;;;;;;;3.03;65.46;99435.84;5360089;32;34262;-69
2024/01/19 05:45:47;;;;;;;;;;;;;;;3.29;64.23;99436.09;5371270;32;35085;-69
2024/01/19 05:48:50;;;;;;;;;;;;;;;2.84;65.18;99432.84;5370148;32;35073;-70
2024/01/19 05:51:52;;;;;;;;;;;;;;;2.27;67.53;99446.19;5372134;32;35063;-69
2024/01/19 05:54:54;;;;;;;;;;;;;;;2.30;68.20;99462.50;5361146;32;35775;-69
2024/01/19 05:57:57;;;;;;;;;;;;;;;2.92;66.08;99460.31;5371639;32;35027;-70
2024/01/19 06:01:02;;;;;;;;;;;;;;;2.88;66.07;99465.59;5356296;32;35310;-69
2024/01/19 06:04:04;;;;;;;;;;;;;;;2.02;69.18;99467.37;5359040;32;34829;-69
2024/01/19 06:07:06;;;;;;;;;;;;;;;1.82;69.32;99475.53;5371938;32;34953;-69
2024/01/19 06:10:09;;;;;;;;;;;;;;;1.56;70.65;99488.94;5371687;32;34400;-69
2024/01/19 06:13:11;;;;;;;;;;;;;;;2.12;69.06;99493.97;5372557;32;35343;-69
2024/01/19 06:16:13;;;;;;;;;;;;;;;1.80;70.41;99491.97;5371432;32;34460;-68
2024/01/19 06:19:15;;;;;;;;;;;;;;;1.93;69.64;99496.06;5360542;32;34883;-69
2024/01/19 06:22:17;;;;;;;;;;;;;;;2.13;69.34;99504.34;5370214;32;35513;-69
2024/01/19 06:25:19;;;;;;;;;;;;;;;2.44;67.87;99496.78;5358704;32;34673;-69
2024/01/19 06:28:21;;;;;;;;;;;;;;;2.46;67.69;99504.56;5373036;32;34330;-68
2024/01/19 06:31:23;;;;;;;;;;;;;;;2.16;68.06;99521.56;5369714;32;35089;-69
2024/01/19 06:34:26;;;;;;;;;;;;;;;2.15;67.84;99541.44;5377993;32;34515;-68
2024/01/19 06:37:28;;;;;;;;;;;;;;;2.42;66.96;99549.59;5358978;32;34570;-68
2024/01/19 06:40:30;;;;;;;;;;;;;;;2.84;65.44;99557.41;5376040;32;34662;-69
2024/01/19 06:43:33;;;;;;;;;;;;;;;2.44;65.70;99553.84;5372341;32;33426;-69
2024/01/19 06:46:35;;;;;;;;;;;;;;;2.18;65.80;99564.72;5376413;32;35031;-70
2024/01/19 06:49:37;;;;;;;;;;;;;;;2.90;64.45;99557.28;5364452;32;34478;-69
2024/01/19 06:52:39;;;;;;;;;;;;;;;3.27;63.21;99575.50;5371864;32;35500;-69
2024/01/19 06:55:41;;;;;;;;;;;;;;;3.19;62.61;99574.81;5361562;32;34595;-69
2024/01/19 06:58:43;;;;;;;;;;;;;;;3.28;61.22;99584.13;5358626;32;34897;-70
2024/01/19 07:01:45;;;;;;;;;;;;;;;3.17;61.28;99589.59;5377469;32;35246;-72
2024/01/19 07:04:48;;;;;;;;;;;;;;;2.64;62.53;99596.72;5377134;32;35645;-69
2024/01/19 07:07:50;;;;;;;;;;;;;;;3.50;60.74;99600.97;5365520;32;35167;-70
2024/01/19 07:10:52;;;;;;;;;;;;;;;3.35;60.71;99609.06;5380156;32;34900;-70
2024/01/19 07:13:54;;;;;;;;;;;;;;;3.72;60.03;99609.94;5368164;32;34852;-69
2024/01/19 07:16:56;;;;;;;;;;;;;;;3.69;59.28;99623.03;5381365;32;35058;-71
2024/01/19 07:20:00;;;;;;;;;;;;;;;2.99;62.06;99637.56;5365453;32;34849;-71
2024/01/19 07:23:03;;;;;;;;;;;;;;;3.70;60.34;99650.72;5379778;32;35045;-70
2024/01/19 07:26:05;;;;;;;;;;;;;;;3.77;58.73;99646.25;5373247;32;36699;-71
2024/01/19 07:29:09;;;;;;;;;;;;;;;3.71;59.82;99651.59;5380450;32;34674;-72
2024/01/19 07:32:11;;;;;;;;;;;;;;;3.76;59.62;99649.75;5381330;32;35052;-70
2024/01/19 07:35:13;;;;;;;;;;;;;;;3.43;60.10;99640.97;5378210;32;34833;-70
2024/01/19 07:38:16;;;;;;;;;;;;;;;3.23;62.38;99650.03;5369183;32;34288;-70
2024/01/19 07:41:18;;;;;;;;;;;;;;;2.97;62.68;99647.12;5378555;32;35142;-71
2024/01/19 07:44:20;;;;;;;;;;;;;;;2.64;64.54;99656.38;5385688;32;34987;-70
2024/01/19 07:47:22;;;;;;;;;;;;;;;2.73;65.01;99658.81;5379063;32;35091;-70
2024/01/19 07:50:26;;;;;;;;;;;;;;;3.05;64.29;99665.97;5366261;32;35121;-71
2024/01/19 07:53:29;;;;;;;;;;;;;;;2.74;63.56;99676.09;5370022;32;34685;-72
2024/01/19 07:56:31;;;;;;;;;;;;;;;2.98;64.10;99688.63;5363535;32;34596;-70
2024/01/19 07:59:33;;;;;;;;;;;;;;;2.74;65.30;99699.44;5370868;32;35366;-70
2024/01/19 08:02:35;;;;;;;;;;;;;;;2.50;66.92;99708.50;5375235;32;34407;-70
2024/01/19 08:05:40;;;;;;;;;;;;;;;1.89;69.42;99720.72;5354887;32;34319;-71
2024/01/19 08:08:42;;;;;;;;;;;;;;;2.09;68.59;99717.84;5380451;32;34873;-71
2024/01/19 08:11:44;;;;;;;;;;;;;;;2.07;69.54;99711.81;5375232;32;34155;-70
2024/01/19 08:14:46;;;;;;;;;;;;;;;1.88;68.76;99712.97;5369231;32;34748;-70
2024/01/19 08:17:48;;;;;;;;;;;;;;;2.09;68.28;99697.09;5378687;32;36476;-71
2024/01/19 08:20:50;;;;;;;;;;;;;;;2.66;66.93;99683.19;5366305;32;34384;-70
2024/01/19 08:23:52;;;;;;;;;;;;;;;2.15;67.46;99681.44;5364044;32;34661;-70
2024/01/19 08:26:54;;;;;;;;;;;;;;;2.07;68.16;99693.69;5367839;32;35187;-71
2024/01/19 08:29:56;;;;;;;;;;;;;;;1.92;68.52;99699.06;5378221;32;35014;-71
2024/01/19 08:33:02;;;;;;;;;;;;;;;1.84;68.54;99695.75;5377805;32;34769;-73
2024/01/19 08:36:04;;;;;;;;;;;;;;;2.67;65.51;99690.06;5379780;32;36272;-70
2024/01/19 08:39:09;;;;;;;;;;;;;;;2.24;66.07;99713.28;5377454;32;34242;-70
2024/01/19 08:42:11;;;;;;;;;;;;;;;2.39;64.93;99736.38;5367473;32;34319;-71
2024/01/19 08:45:13;;;;;;;;;;;;;;;2.83;63.96;99747.72;5377524;32;34404;-72
2024/01/19 08:48:15;;;;;;;;;;;;;;;2.77;63.43;99755.63;5366434;32;34750;-70
2024/01/19 08:51:19;;;;;;;;;;;;;;;3.30;60.54;99753.81;5379741;32;35051;-71
2024/01/19 08:54:21;;;;;;;;;;;;;;;3.42;59.62;99758.75;5354434;32;35328;-71
2024/01/19 08:57:23;;;;;;;;;;;;;;;2.66;60.46;99776.59;5380485;32;34324;-70
2024/01/19 09:00:25;;;;;;;;;;;;;;;2.75;61.11;99770.38;5380249;32;34632;-71
2024/01/19 09:03:27;;;;;;;;;;;;;;;2.59;61.20;99781.00;5366339;32;35277;-71
2024/01/19 09:06:29;;;;;;;;;;;;;;;2.33;62.30;99788.34;5363145;32;36955;-70
2024/01/19 09:09:32;;;;;;;;;;;;;;;2.86;62.59;99784.03;5383703;32;35602;-71
2024/01/19 09:12:34;;;;;;;;;;;;;;;2.41;64.61;99791.69;5381367;32;35407;-71
2024/01/19 09:15:36;;;;;;;;;;;;;;;1.66;67.95;99810.84;5377027;32;35452;-71
2024/01/19 09:18:39;;;;;;;;;;;;;;;1.64;68.97;99822.97;5381750;32;34130;-71
2024/01/19 09:21:44;;;;;;;;;;;;;;;1.89;68.54;99826.13;5372115;32;35351;-70
2024/01/19 09:24:48;;;;;;;;;;;;;;;1.67;68.49;99825.50;5380537;32;35394;-70
2024/01/19 09:27:53;;;;;;;;;;;;;;;1.82;68.02;99829.66;5365337;32;34524;-71
2024/01/19 09:30:57;;;;;;;;;;;;;;;2.30;67.63;99835.06;5366309;32;32607;-70
2024/01/19 09:33:59;;;;;;;;;;;;;;;1.81;68.20;99846.09;5381612;32;35201;-69
2024/01/19 09:37:01;;;;;;;;;;;;;;;2.06;66.34;99849.22;5380159;32;34819;-71
2024/01/19 09:40:03;;;;;;;;;;;;;;;2.32;66.21;99854.94;5381157;32;33635;-70
2024/01/19 09:43:05;;;;;;;;;;;;;;;2.21;66.04;99856.81;5366417;32;35665;-70
2024/01/19 09:46:07;;;;;;;;;;;;;;;1.70;67.43;99863.50;5368296;32;34910;-71
2024/01/19 09:49:24;;;;;;;;;;;;;;;1.76;68.45;99859.09;5369655;32;33567;-73
2024/01/19 09:52:29;;;;;;;;;;;;;;;1.90;69.00;99858.94;5381098;32;35448;-71
2024/01/19 09:55:31;;;;;;;;;;;;;;;1.38;72.49;99871.59;5371053;32;34583;-71
2024/01/19 09:58:33;;;;;;;;;;;;;;;1.37;72.72;99881.09;5356021;32;34428;-71
2024/01/19 10:01:35;;;;;;;;;;;;;;;1.59;73.01;99885.19;5371187;32;34358;-70
2024/01/19 10:04:37;;;;;;;;;;;;;;;1.32;76.80;99880.28;5381634;32;35114;-71
2024/01/19 10:07:43;;;;;;;;;;;;;;;1.33;78.36;99882.84;5382133;32;35292;-69
2024/01/19 10:10:45;;;;;;;;;;;;;;;1.63;77.55;99883.44;5375368;32;35180;-70
2024/01/19 10:13:47;;;;;;;;;;;;;;;1.66;77.49;99896.34;5369903;32;35245;-69
2024/01/19 10:16:50;;;;;;;;;;;;;;;1.12;80.59;99895.16;5385603;32;34511;-70
2024/01/19 10:19:52;;;;;;;;;;;;;;;1.76;79.35;99891.94;5368796;32;33489;-70
2024/01/19 10:22:54;;;;;;;;;;;;;;;1.63;78.50;99886.87;5372668;32;37381;-70
2024/01/19 10:26:10;;;;;;;;;;;;;;;1.55;79.17;99890.44;5365079;32;35410;-70
2024/01/19 10:29:13;;;;;;;;;;;;;;;1.42;78.61;99884.50;5383218;32;35356;-69
2024/01/19 10:32:20;;;;;;;;;;;;;;;1.77;78.00;99898.81;5366513;32;35081;-71
2024/01/19 10:35:22;;;;;;;;;;;;;;;1.43;76.66;99899.19;5376814;32;35227;-69
2024/01/19 10:38:25;;;;;;;;;;;;;;;1.33;79.37;99915.66;5383582;32;34347;-70
2024/01/19 10:41:27;;;;;;;;;;;;;;;0.94;81.25;99937.56;5366906;32;35016;-69
2024/01/19 10:44:29;;;;;;;;;;;;;;;0.66;82.00;99949.81;5384698;32;34965;-69
2024/01/19 10:47:31;;;;;;;;;;;;;;;0.72;82.22;99942.88;5381272;32;35014;-70
2024/01/19 10:50:33;;;;;;;;;;;;;;;0.83;82.96;99960.91;5377794;32;35775;-69
2024/01/19 10:53:35;;;;;;;;;;;;;;;0.95;81.84;99963.41;5370387;32;34652;-69
2024/01/19 10:56:38;;;;;;;;;;;;;;;0.74;83.55;99971.31;5364135;32;34465;-70
2024/01/19 10:59:40;;;;;;;;;;;;;;;0.42;85.45;100000.78;5387020;32;35083;-70
2024/01/19 11:02:42;;;;;;;;;;;;;;;0.69;83.65;100009.28;5380384;32;34131;-70
2024/01/19 11:05:45;;;;;;;;;;;;;;;0.91;83.20;100023.84;5371275;32;34232;-70
2024/01/19 11:08:47;;;;;;;;;;;;;;;1.11;82.06;100033.22;5380403;32;35900;-70
2024/01/19 11:11:57;;;;;;;;;;;;;;;0.77;85.03;100039.44;5368104;32;35558;-68
2024/01/19 11:14:59;;;;;;;;;;;;;;;1.48;81.96;100044.13;5371555;32;36213;-69
2024/01/19 11:18:02;;;;;;;;;;;;;;;1.71;80.82;100046.56;5364872;32;34798;-69
2024/01/19 11:21:05;;;;;;;;;;;;;;;0.97;82.82;100062.62;5367718;32;35000;-69
2024/01/19 11:24:08;;;;;;;;;;;;;;;1.38;79.68;100064.09;5364282;32;35308;-69
2024/01/19 11:27:12;;;;;;;;;;;;;;;1.07;80.02;100073.75;5365007;32;37796;-69
2024/01/19 11:30:19;;;;;;;;;;;;;;;1.50;79.37;100078.69;5379582;32;35366;-69
2024/01/19 11:33:21;;;;;;;;;;;;;;;1.89;76.45;100080.94;5379695;32;34576;-69
2024/01/19 11:36:39;;;;;;;;;;;;;;;1.26;79.12;100085.72;5369170;32;35366;-69
2024/01/19 11:39:42;;;;;;;;;;;;;;;1.86;76.98;100087.87;5379950;32;34149;-69
2024/01/19 11:42:45;;;;;;;;;;;;;;;1.42;79.52;100088.22;5368182;32;35706;-69
2024/01/19 11:45:47;;;;;;;;;;;;;;;1.26;79.33;100090.91;5366598;32;35529;-70
2024/01/19 11:48:49;;;;;;;;;;;;;;;1.25;79.01;100088.34;5378407;32;34237;-70
2024/01/19 11:51:52;;;;;;;;;;;;;;;1.15;78.85;100082.34;5378805;32;35545;-70
2024/01/19 11:54:54;;;;;;;;;;;;;;;1.88;78.13;100091.34;5378260;32;35044;-71
2024/01/19 11:57:57;;;;;;;;;;;;;;;0.70;80.35;100094.63;5363491;32;34644;-68
2024/01/19 12:01:00;;;;;;;;;;;;;;;0.90;83.47;100094.56;5363068;32;34490;-70
2024/01/19 12:04:02;;;;;;;;;;;;;;;0.87;81.91;100097.16;5380058;32;35320;-70
2024/01/19 12:07:06;;;;;;;;;;;;;;;0.47;84.06;100097.31;5361518;32;34810;-69
2024/01/19 12:10:09;;;;;;;;;;;;;;;0.31;84.94;100098.19;5364657;32;35372;-69
2024/01/19 12:13:12;;;;;;;;;;;;;;;0.75;84.99;100095.47;5370488;32;34341;-69
2024/01/19 12:16:14;;;;;;;;;;;;;;;1.02;84.34;100099.66;5374942;32;35564;-69
2024/01/19 12:19:16;;;;;;;;;;;;;;;0.66;84.01;100117.94;5355931;32;35063;-69
2024/01/19 12:22:22;;;;;;;;;;;;;;;1.45;84.06;100119.28;5364252;32;34968;-69
2024/01/19 12:25:25;;;;;;;;;;;;;;;1.32;81.85;100113.31;5364928;32;34465;-69
2024/01/19 12:28:27;;;;;;;;;;;;;;;2.27;80.60;100130.75;5364363;32;34434;-69
2024/01/19 12:31:36;;;;;;;;;;;;;;;1.77;78.62;100145.84;5362469;32;34429;-70
2024/01/19 12:34:40;;;;;;;;;;;;;;;0.98;82.86;100141.97;5368856;32;34566;-69
2024/01/19 12:37:42;;;;;;;;;;;;;;;0.83;82.53;100142.00;5377096;32;35661;-70
2024/01/19 12:40:44;;;;;;;;;;;;;;;0.76;84.31;100142.91;5378938;32;34511;-71
2024/01/19 12:43:46;;;;;;;;;;;;;;;0.92;84.42;100136.81;5375547;32;35286;-69
2024/01/19 12:46:48;;;;;;;;;;;;;;;1.08;84.16;100140.19;5369453;32;35334;-69
2024/01/19 12:49:50;;;;;;;;;;;;;;;1.27;82.53;100157.34;5377210;32;35100;-70
2024/01/19 12:53:04;;;;;;;;;;;;;;;1.54;80.21;100148.56;5360593;32;34628;-70
2024/01/19 12:56:23;;;;;;;;;;;;;;;1.83;80.55;100160.47;5361200;32;34809;-69
2024/01/19 12:59:25;;;;;;;;;;;;;;;2.23;79.53;100170.53;5359377;32;34621;-69
2024/01/19 13:02:27;;;;;;;;;;;;;;;2.18;78.62;100183.53;5373300;32;35530;-70
2024/01/19 13:05:30;;;;;;;;;;;;;;;1.89;78.54;100187.22;5372410;32;34678;-71
2024/01/19 13:08:33;;;;;;;;;;;;;;;1.48;79.19;100199.53;5357967;32;34526;-69
2024/01/19 13:11:35;;;;;;;;;;;;;;;1.90;78.58;100199.28;5366359;32;34296;-70
2024/01/19 13:14:37;;;;;;;;;;;;;;;1.91;79.20;100202.75;5373332;32;34268;-69
2024/01/19 13:17:43;;;;;;;;;;;;;;;2.22;78.37;100202.53;5364583;32;34549;-70
2024/01/19 13:20:45;;;;;;;;;;;;;;;2.24;77.70;100203.37;5378541;32;35173;-70
2024/01/19 13:23:47;;;;;;;;;;;;;;;1.71;78.97;100207.19;5372885;32;34765;-70
2024/01/19 13:27:11;;;;;;;;;;;;;;;2.46;77.39;100219.63;5371130;32;34665;-70
2024/01/19 13:30:13;;;;;;;;;;;;;;;2.34;78.39;100234.41;5375228;32;35077;-70
2024/01/19 13:33:16;;;;;;;;;;;;;;;2.47;77.45;100240.34;5377755;32;34244;-69
2024/01/19 13:36:18;;;;;;;;;;;;;;;2.18;76.40;100253.53;5370857;32;33336;-69
2024/01/19 13:39:21;;;;;;;;;;;;;;;2.88;74.99;100255.53;5369022;32;34827;-69
2024/01/19 13:42:23;;;;;;;;;;;;;;;2.50;75.27;100258.47;5368351;32;34728;-70
2024/01/19 13:45:25;;;;;;;;;;;;;;;2.41;77.03;100263.75;5374464;32;34786;-70
2024/01/19 13:48:27;;;;;;;;;;;;;;;2.64;74.50;100267.03;5362494;32;35152;-70
2024/01/19 13:51:29;;;;;;;;;;;;;;;2.57;75.07;100278.31;5359217;32;34796;-70
2024/01/19 13:54:31;;;;;;;;;;;;;;;2.38;76.49;100274.13;5379938;32;35681;-69
2024/01/19 13:57:33;;;;;;;;;;;;;;;2.79;74.43;100272.94;5365317;32;34354;-69
2024/01/19 14:00:35;;;;;;;;;;;;;;;2.90;75.83;100282.34;5377542;32;35203;-70
2024/01/19 14:03:38;;;;;;;;;;;;;;;3.86;72.34;100293.38;5367999;32;35192;-69
2024/01/19 14:06:40;;;;;;;;;;;;;;;3.80;70.70;100285.69;5373062;32;35504;-70
2024/01/19 14:09:42;;;;;;;;;;;;;;;3.84;70.14;100313.34;5376284;32;34572;-69
2024/01/19 14:12:45;;;;;;;;;;;;;;;3.70;71.34;100318.72;5374708;32;34158;-69
2024/01/19 14:15:48;;;;;;;;;;;;;;;3.50;71.83;100338.87;5361831;32;34758;-70
2024/01/19 14:18:53;;;;;;;;;;;;;;;3.38;72.05;100319.09;5371212;32;34378;-70
2024/01/19 14:21:55;;;;;;;;;;;;;;;3.74;70.61;100317.81;5371902;32;34332;-71
2024/01/19 14:24:57;;;;;;;;;;;;;;;3.95;70.13;100321.00;5370982;32;34194;-70
2024/01/19 14:27:59;;;;;;;;;;;;;;;3.43;70.56;100332.03;5369076;32;35700;-69
2024/01/19 14:31:02;;;;;;;;;;;;;;;3.94;69.88;100346.16;5375982;32;34475;-69
2024/01/19 14:34:04;;;;;;;;;;;;;;;3.74;69.17;100362.00;5372278;32;34784;-71
2024/01/19 14:37:10;;;;;;;;;;;;;;;4.62;67.42;100367.75;5374065;32;34271;-69
2024/01/19 14:40:13;;;;;;;;;;;;;;;5.27;63.69;100379.72;5370945;32;34941;-70
2024/01/19 14:43:15;;;;;;;;;;;;;;;4.53;65.21;100380.91;5375438;32;34516;-70
2024/01/19 14:46:17;;;;;;;;;;;;;;;3.76;68.03;100385.38;5371417;32;34663;-70
2024/01/19 14:49:22;;;;;;;;;;;;;;;4.17;66.46;100390.06;5373558;32;35227;-70
2024/01/19 14:52:24;;;;;;;;;;;;;;;4.93;64.65;100395.91;5375934;32;35974;-68
2024/01/19 14:55:27;;;;;;;;;;;;;;;4.12;65.88;100411.81;5362020;32;34317;-69
2024/01/19 14:58:29;;;;;;;;;;;;;;;4.60;66.36;100428.53;5358937;32;33653;-71
2024/01/19 15:01:31;;;;;;;;;;;;;;;2.95;67.36;100443.25;5356791;32;35610;-69
2024/01/19 15:04:33;;;;;;;;;;;;;;;3.86;66.45;100427.72;5376322;32;34777;-69
2024/01/19 15:07:35;;;;;;;;;;;;;;;4.04;66.33;100425.75;5344962;32;35119;-71
2024/01/19 15:10:37;;;;;;;;;;;;;;;4.87;64.72;100438.53;5376361;32;34449;-69
2024/01/19 15:13:39;;;;;;;;;;;;;;;3.68;63.95;100440.06;5376734;32;34435;-69
2024/01/19 15:16:41;;;;;;;;;;;;;;;3.49;66.07;100434.16;5372423;32;34710;-71
2024/01/19 15:19:43;;;;;;;;;;;;;;;3.92;65.49;100441.50;5376972;32;34735;-71
2024/01/19 15:22:45;;;;;;;;;;;;;;;4.22;64.25;100442.91;5369599;32;34992;-70
2024/01/19 15:25:47;;;;;;;;;;;;;;;4.73;62.79;100450.91;5359013;32;34669;-69
2024/01/19 15:28:50;;;;;;;;;;;;;;;4.86;61.89;100460.25;5371173;32;35613;-69
2024/01/19 15:31:52;;;;;;;;;;;;;;;4.00;61.42;100476.12;5372118;32;34657;-69
2024/01/19 15:34:58;;;;;;;;;;;;;;;3.84;61.03;100487.53;5363042;32;34366;-70
2024/01/19 15:38:00;;;;;;;;;;;;;;;4.43;58.18;100485.16;5368265;32;35214;-69
2024/01/19 15:41:02;;;;;;;;;;;;;;;4.09;54.82;100493.34;5373478;32;34751;-69
2024/01/19 15:44:05;;;;;;;;;;;;;;;3.61;55.42;100498.16;5346245;32;34426;-69
2024/01/19 15:47:07;;;;;;;;;;;;;;;3.78;54.14;100501.47;5374040;32;34907;-69
2024/01/19 15:50:10;;;;;;;;;;;;;;;4.38;50.84;100506.03;5374487;32;36893;-68
2024/01/19 15:53:11;;;;;;;;;;;;;;;4.33;51.14;100511.28;5357867;32;35350;-71
2024/01/19 15:56:20;;;;;;;;;;;;;;;4.41;49.54;100519.00;5373119;32;34912;-69
2024/01/19 15:59:32;;;;;;;;;;;;;;;4.20;50.56;100525.31;5369344;32;34741;-70